Time;durP1;ratioP1;P1;durP2;ratioP2;P2;SDS_P1;SDS_P2;PMS_P1;PMS_P2;Temp;Humidity;BMP_temperature;BMP_pressure;BME280_temperature;BME280_humidity;BME280_pressure;Samples;Min_cycle;Max_cycle;Signal;HPM_P1;HPM_P2
2022/10/23 00:01:27;;;;;;;12.30;6.78;;;;;;;11.91;100.00;101276.00;5246932;28;20155;-77
2022/10/23 00:04:02;;;;;;;16.73;7.33;;;;;;;11.93;100.00;101282.88;5245264;28;20029;-77
2022/10/23 00:06:35;;;;;;;13.82;7.13;;;;;;;11.82;100.00;101265.13;5244881;28;20142;-77
2022/10/23 00:09:07;;;;;;;11.53;6.70;;;;;;;11.96;100.00;101279.22;5248759;28;20040;-77
2022/10/23 00:11:40;;;;;;;12.33;6.80;;;;;;;11.88;100.00;101266.56;5255448;28;20028;-77
2022/10/23 00:14:11;;;;;;;14.40;6.67;;;;;;;11.91;100.00;101273.38;5265067;28;20040;-78
2022/10/23 00:16:43;;;;;;;11.93;6.50;;;;;;;11.82;100.00;101274.78;5271004;28;20029;-77
2022/10/23 00:19:14;;;;;;;13.70;6.43;;;;;;;11.94;100.00;101265.31;5262572;28;20524;-76
2022/10/23 00:21:45;;;;;;;18.23;6.80;;;;;;;11.87;100.00;101272.72;5253193;28;20055;-77
2022/10/23 00:24:17;;;;;;;12.23;6.53;;;;;;;11.95;100.00;101275.75;5283748;28;20072;-77
2022/10/23 00:26:49;;;;;;;14.33;7.03;;;;;;;12.00;100.00;101280.72;5301005;28;20032;-76
2022/10/23 00:29:21;;;;;;;14.93;7.10;;;;;;;11.96;100.00;101279.22;5295383;28;20044;-77
2022/10/23 00:31:52;;;;;;;14.77;6.73;;;;;;;12.00;100.00;101285.97;5288283;28;20050;-76
2022/10/23 00:34:23;;;;;;;14.47;7.13;;;;;;;11.86;100.00;101271.91;5300948;28;20031;-77
2022/10/23 00:36:55;;;;;;;13.53;6.97;;;;;;;11.95;100.00;101270.50;5275815;28;20126;-77
2022/10/23 00:39:27;;;;;;;14.70;7.07;;;;;;;11.83;100.00;101269.44;5287479;28;20375;-77
2022/10/23 00:41:59;;;;;;;11.83;7.23;;;;;;;11.88;100.00;101270.94;5280450;28;20062;-77
2022/10/23 00:44:31;;;;;;;14.27;6.33;;;;;;;12.01;100.00;101271.09;5290671;28;20638;-78
2022/10/23 00:47:02;;;;;;;13.23;6.97;;;;;;;11.84;100.00;101262.41;5275272;28;20052;-77
2022/10/23 00:49:33;;;;;;;13.57;6.50;;;;;;;11.95;100.00;101267.03;5266791;28;20490;-77
2022/10/23 00:52:07;;;;;;;10.57;6.33;;;;;;;12.04;100.00;101270.91;5278111;28;20048;-77
2022/10/23 00:54:42;;;;;;;12.90;6.47;;;;;;;12.06;100.00;101271.66;5279505;28;20389;-78
2022/10/23 00:57:14;;;;;;;11.50;6.43;;;;;;;11.92;100.00;101259.34;5280462;28;20090;-78
2022/10/23 00:59:46;;;;;;;15.80;8.10;;;;;;;11.94;100.00;101267.94;5278772;28;20028;-77
2022/10/23 01:02:17;;;;;;;12.77;6.60;;;;;;;11.90;100.00;101261.22;5273516;28;20028;-77
2022/10/23 01:04:48;;;;;;;19.93;8.17;;;;;;;12.00;100.00;101264.97;5266347;28;20078;-76
2022/10/23 01:07:35;;;;;;;17.07;7.40;;;;;;;11.94;100.00;101260.94;5276916;28;20051;-76
2022/10/23 01:10:19;;;;;;;14.57;6.70;;;;;;;11.92;100.00;101261.97;5274587;28;20036;-77
2022/10/23 01:13:20;;;;;;;14.03;6.27;;;;;;;12.04;100.00;101268.28;5278266;28;20031;-77
2022/10/23 01:16:14;;;;;;;16.00;6.33;;;;;;;11.95;100.00;101238.16;5262819;28;20053;-78
2022/10/23 01:18:54;;;;;;;16.33;6.53;;;;;;;11.97;100.00;101247.63;5278044;28;20076;-78
2022/10/23 01:21:37;;;;;;;15.10;5.97;;;;;;;11.94;100.00;101254.84;5273467;28;20120;-76
2022/10/23 01:24:18;;;;;;;9.60;6.80;;;;;;;11.82;100.00;101254.63;5279587;28;20032;-77
2022/10/23 01:27:13;;;;;;;12.67;6.57;;;;;;;11.95;100.00;101252.13;5243988;28;20028;-77
2022/10/23 01:29:50;;;;;;;13.18;6.32;;;;;;;11.85;100.00;101241.31;5278708;28;20036;-77
2022/10/23 01:33:01;;;;;;;10.10;5.77;;;;;;;11.79;100.00;101236.44;5279408;28;20043;-77
2022/10/23 01:35:36;;;;;;;10.13;5.70;;;;;;;11.69;100.00;101227.44;5273171;28;20368;-78
2022/10/23 01:38:17;;;;;;;12.13;6.70;;;;;;;11.69;100.00;101230.06;5289630;28;20406;-77
2022/10/23 01:41:01;;;;;;;14.93;5.60;;;;;;;11.71;100.00;101238.69;5273797;28;20024;-78
2022/10/23 01:43:42;;;;;;;13.10;6.70;;;;;;;11.76;100.00;101226.13;5293642;28;20032;-78
2022/10/23 01:46:16;;;;;;;16.47;6.40;;;;;;;11.69;100.00;101223.03;5280961;28;20394;-77
2022/10/23 01:48:52;;;;;;;11.57;5.57;;;;;;;11.62;100.00;101217.28;5283080;28;20034;-77
2022/10/23 01:51:26;;;;;;;12.20;6.50;;;;;;;11.61;100.00;101212.97;5271950;28;20627;-77
2022/10/23 01:53:59;;;;;;;11.23;5.80;;;;;;;11.56;100.00;101201.91;5288602;28;20027;-78
2022/10/23 01:56:33;;;;;;;14.02;6.78;;;;;;;11.67;100.00;101210.91;5286414;28;20028;-77
2022/10/23 01:59:12;;;;;;;9.35;5.40;;;;;;;11.74;100.00;101212.25;5279196;28;20013;-77
2022/10/23 02:01:47;;;;;;;18.53;6.50;;;;;;;11.71;100.00;101209.81;5277888;28;20029;-78
2022/10/23 02:04:26;;;;;;;15.07;6.30;;;;;;;11.60;100.00;101213.06;5278738;28;20025;-77
2022/10/23 02:06:57;;;;;;;14.33;6.57;;;;;;;11.53;100.00;101207.34;5259263;28;20028;-77
2022/10/23 02:09:29;;;;;;;14.87;6.63;;;;;;;11.66;100.00;101214.50;5277945;28;20033;-76
2022/10/23 02:12:12;;;;;;;9.40;5.60;;;;;;;11.70;100.00;101222.09;5260384;28;20111;-78
2022/10/23 02:14:55;;;;;;;13.33;6.73;;;;;;;11.66;100.00;101211.88;5276921;28;20040;-77
2022/10/23 02:17:41;;;;;;;15.97;7.73;;;;;;;11.65;100.00;101205.78;5260042;28;20050;-77
2022/10/23 02:20:19;;;;;;;13.03;6.23;;;;;;;11.65;100.00;101197.91;5277188;28;20036;-77
2022/10/23 02:23:06;;;;;;;18.23;7.03;;;;;;;11.70;100.00;101210.75;5277183;28;20021;-76
2022/10/23 02:25:49;;;;;;;10.90;6.20;;;;;;;11.60;100.00;101208.66;5277983;28;20024;-76
2022/10/23 02:28:36;;;;;;;14.93;6.73;;;;;;;11.59;100.00;101199.09;5259428;28;20035;-76
2022/10/23 02:31:11;;;;;;;16.63;6.10;;;;;;;11.62;100.00;101196.28;5277185;28;20111;-78
2022/10/23 02:33:45;;;;;;;16.87;6.73;;;;;;;11.58;100.00;101186.06;5277550;28;20475;-77
2022/10/23 02:36:18;;;;;;;17.35;6.93;;;;;;;11.56;100.00;101180.06;5262219;28;20481;-76
2022/10/23 02:38:49;;;;;;;14.60;6.40;;;;;;;11.58;100.00;101181.69;5277027;28;20021;-76
2022/10/23 02:41:42;;;;;;;11.80;6.70;;;;;;;11.67;100.00;101179.44;5259515;28;20452;-77
2022/10/23 02:44:32;;;;;;;13.33;6.30;;;;;;;11.64;100.00;101169.13;5277604;28;20055;-77
2022/10/23 02:47:27;;;;;;;12.60;6.23;;;;;;;11.59;100.00;101156.31;5277396;28;20020;-77
2022/10/23 02:50:08;;;;;;;13.80;6.05;;;;;;;11.65;100.00;101148.06;5274644;28;20044;-77
2022/10/23 02:53:11;;;;;;;15.57;7.37;;;;;;;11.67;100.00;101137.47;5276746;28;20032;-76
2022/10/23 02:55:59;;;;;;;15.10;7.40;;;;;;;11.57;100.00;101127.50;5215646;28;20102;-76
2022/10/23 02:58:46;;;;;;;19.20;6.63;;;;;;;11.60;100.00;101123.88;5276759;28;20035;-76
2022/10/23 03:01:24;;;;;;;11.70;7.10;;;;;;;11.62;100.00;101119.38;5276345;28;20025;-76
2022/10/23 03:03:58;;;;;;;12.07;7.13;;;;;;;11.70;100.00;101111.03;5276274;28;20072;-76
2022/10/23 03:06:31;;;;;;;;;;;;;;;11.80;100.00;101117.41;5275935;28;20056;-77
2022/10/23 03:09:05;;;;;;;20.47;6.73;;;;;;;11.64;100.00;101107.03;5276408;28;19927;-76
2022/10/23 03:11:36;;;;;;;;;;;;;;;11.79;100.00;101109.63;5277388;28;20526;-76
2022/10/23 03:14:10;;;;;;;17.37;6.00;;;;;;;11.67;100.00;101098.97;5275843;28;19916;-77
2022/10/23 03:16:41;;;;;;;14.15;8.32;;;;;;;11.65;100.00;101092.09;5276496;28;20032;-77
2022/10/23 03:19:13;;;;;;;16.10;6.97;;;;;;;11.61;100.00;101096.69;5275723;28;20502;-77
2022/10/23 03:21:44;;;;;;;16.00;7.13;;;;;;;11.56;100.00;101077.75;5275079;28;20032;-78
2022/10/23 03:24:15;;;;;;;15.37;7.40;;;;;;;11.66;100.00;101101.69;5258341;28;20103;-76
2022/10/23 03:26:46;;;;;;;16.37;7.30;;;;;;;11.50;100.00;101085.06;5276166;28;20031;-76
2022/10/23 03:29:18;;;;;;;14.33;7.53;;;;;;;11.66;100.00;101093.81;5276976;28;20108;-77
2022/10/23 03:31:49;;;;;;;17.23;7.30;;;;;;;11.56;100.00;101080.38;5276070;28;20025;-77
2022/10/23 03:34:20;;;;;;;13.20;7.07;;;;;;;11.59;100.00;101099.41;5276671;28;20024;-77
2022/10/23 03:36:52;;;;;;;15.47;8.20;;;;;;;11.60;100.00;101080.13;5258597;28;20024;-76
2022/10/23 03:39:23;;;;;;;11.87;6.87;;;;;;;11.60;100.00;101085.38;5260631;28;20058;-77
2022/10/23 03:41:54;;;;;;;15.57;6.50;;;;;;;11.56;100.00;101068.13;5275695;28;20658;-77
2022/10/23 03:44:25;;;;;;;16.47;6.67;;;;;;;11.61;100.00;101065.22;5276394;28;20486;-77
2022/10/23 03:46:57;;;;;;;13.30;7.83;;;;;;;11.67;100.00;101074.50;5276052;28;20044;-76
2022/10/23 03:49:28;;;;;;;17.60;7.17;;;;;;;11.70;100.00;101076.94;5257188;28;20039;-76
2022/10/23 03:51:59;;;;;;;16.50;7.13;;;;;;;11.66;100.00;101067.56;5275689;28;20036;-78
2022/10/23 03:54:32;;;;;;;13.63;7.30;;;;;;;11.69;100.00;101063.00;5275869;28;20040;-77
2022/10/23 03:57:03;;;;;;;12.63;7.33;;;;;;;11.69;100.00;101072.63;5275549;28;20025;-77
2022/10/23 03:59:35;;;;;;;12.87;7.37;;;;;;;11.66;100.00;101057.09;5276088;28;20025;-77
2022/10/23 04:02:06;;;;;;;13.07;6.87;;;;;;;11.71;100.00;101050.59;5275718;28;20062;-77
2022/10/23 04:04:37;;;;;;;19.43;8.00;;;;;;;11.71;100.00;101052.41;5275327;28;20034;-76
2022/10/23 04:07:09;;;;;;;12.13;6.03;;;;;;;11.72;100.00;101046.19;5275374;28;20020;-76
2022/10/23 04:09:40;;;;;;;13.63;7.07;;;;;;;11.75;100.00;101040.75;5276747;28;20031;-76
2022/10/23 04:12:11;;;;;;;10.37;7.10;;;;;;;11.73;100.00;101032.13;5275695;28;20025;-77
2022/10/23 04:14:43;;;;;;;13.30;7.00;;;;;;;11.77;100.00;101038.88;5257336;28;20044;-77
2022/10/23 04:17:14;;;;;;;17.53;7.60;;;;;;;11.77;100.00;101038.88;5276668;28;20035;-76
2022/10/23 04:19:45;;;;;;;16.50;6.93;;;;;;;11.76;100.00;101029.34;5274546;28;20043;-77
2022/10/23 04:22:17;;;;;;;13.80;7.50;;;;;;;11.74;100.00;101026.81;5258271;28;20032;-78
2022/10/23 04:24:48;;;;;;;14.83;7.47;;;;;;;11.74;100.00;101039.09;5275082;28;20029;-77
2022/10/23 04:27:19;;;;;;;19.70;8.07;;;;;;;11.65;100.00;101026.53;5274445;28;20028;-77
2022/10/23 04:29:51;;;;;;;13.03;7.37;;;;;;;11.72;100.00;101043.56;5274947;28;20119;-77
2022/10/23 04:32:22;;;;;;;12.63;6.87;;;;;;;11.64;100.00;101022.22;5257631;28;20024;-77
2022/10/23 04:34:53;;;;;;;12.97;6.50;;;;;;;11.68;100.00;101023.69;5274082;28;20395;-76
2022/10/23 04:37:25;;;;;;;14.03;7.10;;;;;;;11.73;100.00;101040.84;5274974;28;20020;-76
2022/10/23 04:39:56;;;;;;;13.60;7.57;;;;;;;11.82;100.00;101042.06;5275451;28;20093;-77
2022/10/23 04:42:27;;;;;;;13.33;6.67;;;;;;;11.75;100.00;101032.88;5275039;28;20560;-77
2022/10/23 04:44:59;;;;;;;10.60;6.37;;;;;;;11.71;100.00;101015.66;5275273;28;20032;-77
2022/10/23 04:47:30;;;;;;;13.57;7.23;;;;;;;11.76;100.00;101026.72;5275071;28;20028;-76
2022/10/23 04:50:01;;;;;;;14.23;6.43;;;;;;;11.78;100.00;101024.00;5273958;28;20515;-77
2022/10/23 04:52:33;;;;;;;12.93;6.97;;;;;;;11.77;100.00;101012.66;5275390;28;20103;-77
2022/10/23 04:55:06;;;;;;;11.83;6.23;;;;;;;11.83;100.00;101019.31;5275211;28;20029;-77
2022/10/23 04:57:37;;;;;;;12.83;6.40;;;;;;;11.83;100.00;101022.75;5275498;28;20058;-77
2022/10/23 05:00:12;;;;;;;9.40;6.07;;;;;;;11.84;100.00;101015.72;5256679;28;20387;-76
2022/10/23 05:02:44;;;;;;;11.43;6.90;;;;;;;11.83;100.00;101016.69;5274916;28;20024;-76
2022/10/23 05:05:16;;;;;;;11.37;6.00;;;;;;;11.88;100.00;101019.84;5274265;28;20376;-77
2022/10/23 05:07:47;;;;;;;11.00;6.83;;;;;;;11.78;100.00;101003.81;5274999;28;20078;-76
2022/10/23 05:10:18;;;;;;;13.47;6.17;;;;;;;11.85;100.00;101005.13;5259976;28;20418;-76
2022/10/23 05:12:50;;;;;;;12.00;6.53;;;;;;;11.90;100.00;101011.88;5278881;28;20059;-76
2022/10/23 05:15:21;;;;;;;12.20;6.60;;;;;;;11.88;100.00;101014.59;5261344;28;20041;-77
2022/10/23 05:18:01;;;;;;;15.70;6.67;;;;;;;11.89;100.00;101011.03;5278410;28;20060;-77
2022/10/23 05:20:35;;;;;;;14.00;6.23;;;;;;;11.83;100.00;100996.50;5277615;28;20036;-76
2022/10/23 05:23:10;;;;;;;10.65;5.53;;;;;;;11.83;100.00;100995.69;5278691;28;20036;-78
2022/10/23 05:25:41;;;;;;;11.13;6.33;;;;;;;11.86;100.00;100996.34;5261298;28;20128;-78
2022/10/23 05:28:12;;;;;;;11.83;6.70;;;;;;;11.83;100.00;100996.50;5277782;28;20481;-77
2022/10/23 05:30:44;;;;;;;12.13;7.03;;;;;;;11.89;100.00;100994.44;5278428;28;20123;-77
2022/10/23 05:33:16;;;;;;;14.23;5.63;;;;;;;11.86;100.00;100996.34;5278517;28;20163;-77
2022/10/23 05:35:47;;;;;;;12.03;6.03;;;;;;;11.79;100.00;100989.78;5276869;28;20040;-78
2022/10/23 05:38:18;;;;;;;12.70;5.80;;;;;;;11.79;100.00;100989.78;5261146;28;20028;-77
2022/10/23 05:40:51;;;;;;;12.37;5.83;;;;;;;11.81;100.00;100980.03;5278244;28;20025;-77
2022/10/23 05:43:22;;;;;;;10.73;5.67;;;;;;;11.82;100.00;100984.34;5260500;28;20033;-76
2022/10/23 05:45:53;;;;;;;12.23;5.20;;;;;;;11.77;100.00;100978.53;5278212;28;20466;-77
2022/10/23 05:48:25;;;;;;;11.87;6.37;;;;;;;11.82;100.00;100983.47;5277517;28;20028;-76
2022/10/23 05:51:01;;;;;;;13.03;5.83;;;;;;;11.82;100.00;100980.84;5277422;28;20062;-76
2022/10/23 05:53:33;;;;;;;8.67;5.57;;;;;;;11.80;100.00;100980.13;5259443;28;20039;-76
2022/10/23 05:56:06;;;;;;;13.37;5.80;;;;;;;11.86;100.00;100983.22;5277999;28;20028;-76
2022/10/23 05:58:37;;;;;;;11.20;5.27;;;;;;;11.82;100.00;100973.84;5259462;28;20028;-76
2022/10/23 06:01:11;;;;;;;11.30;5.47;;;;;;;11.84;100.00;100969.34;5277121;28;20055;-76
2022/10/23 06:03:42;;;;;;;12.02;5.40;;;;;;;11.83;100.00;100967.63;5266146;28;20020;-77
2022/10/23 06:06:14;;;;;;;11.43;5.23;;;;;;;11.88;100.00;100974.38;5257536;28;20031;-77
2022/10/23 06:08:45;;;;;;;8.80;4.80;;;;;;;11.90;100.00;100956.78;5259375;28;20119;-76
2022/10/23 06:11:17;;;;;;;10.10;4.80;;;;;;;11.90;100.00;100965.50;5259928;28;20105;-76
2022/10/23 06:13:48;;;;;;;15.07;5.20;;;;;;;11.86;100.00;100954.34;5261306;28;20050;-77
2022/10/23 06:16:23;;;;;;;13.40;6.33;;;;;;;11.83;100.00;100948.44;5259202;28;20434;-77
2022/10/23 06:18:56;;;;;;;14.57;5.57;;;;;;;11.87;100.00;100963.03;5259669;28;20044;-76
2022/10/23 06:21:27;;;;;;;9.07;5.10;;;;;;;11.86;100.00;100956.97;5276116;28;20032;-77
2022/10/23 06:23:58;;;;;;;10.50;5.37;;;;;;;11.89;100.00;100952.44;5277585;28;20025;-78
2022/10/23 06:26:30;;;;;;;13.17;6.47;;;;;;;11.92;100.00;100957.53;5277867;28;20090;-78
2022/10/23 06:29:01;;;;;;;11.47;4.73;;;;;;;11.94;100.00;100959.09;5276461;28;20028;-78
2022/10/23 06:31:32;;;;;;;8.97;4.77;;;;;;;11.94;100.00;100939.88;5259681;28;20035;-78
2022/10/23 06:34:04;;;;;;;14.33;5.73;;;;;;;11.96;100.00;100944.09;5276058;28;20032;-76
2022/10/23 06:36:36;;;;;;;11.17;4.60;;;;;;;12.01;100.00;100950.84;5259560;28;20659;-76
2022/10/23 06:39:09;;;;;;;9.47;5.53;;;;;;;11.98;100.00;100938.75;5277110;28;20079;-77
2022/10/23 06:41:41;;;;;;;15.07;5.57;;;;;;;11.94;100.00;100929.38;5259118;28;20119;-76
2022/10/23 06:44:12;;;;;;;15.33;5.60;;;;;;;12.01;100.00;100930.66;5277099;28;20522;-78
2022/10/23 06:46:46;;;;;;;9.43;4.87;;;;;;;12.03;100.00;100922.69;5276923;28;20112;-77
2022/10/23 06:49:17;;;;;;;13.30;5.32;;;;;;;12.10;100.00;100929.25;5276563;28;20040;-78
2022/10/23 06:51:48;;;;;;;8.80;5.30;;;;;;;12.10;100.00;100927.47;5281626;28;20088;-78
2022/10/23 06:54:19;;;;;;;7.23;4.27;;;;;;;12.14;100.00;100932.53;5277649;28;20032;-77
2022/10/23 06:56:52;;;;;;;10.90;4.80;;;;;;;12.15;100.00;100926.34;5276923;28;20021;-77
2022/10/23 06:59:23;;;;;;;11.80;4.63;;;;;;;12.18;100.00;100926.16;5276869;28;20021;-78
2022/10/23 07:01:54;;;;;;;12.83;5.30;;;;;;;12.18;100.00;100921.72;5276714;28;20024;-76
2022/10/23 07:04:26;;;;;;;7.53;4.50;;;;;;;12.16;100.00;100914.91;5275423;28;20548;-77
2022/10/23 07:06:57;;;;;;;7.77;4.43;;;;;;;12.26;100.00;100926.47;5276259;28;20107;-78
2022/10/23 07:09:28;;;;;;;13.03;4.97;;;;;;;12.23;100.00;100924.06;5277796;28;20035;-76
2022/10/23 07:12:00;;;;;;;9.67;3.90;;;;;;;12.25;100.00;100918.72;5279008;28;20021;-77
2022/10/23 07:14:31;;;;;;;13.10;4.83;;;;;;;12.32;100.00;100923.44;5276431;28;20049;-76
2022/10/23 07:17:02;;;;;;;11.60;4.80;;;;;;;12.38;100.00;100921.34;5275943;28;20046;-77
2022/10/23 07:19:33;;;;;;;13.83;4.80;;;;;;;12.38;100.00;100921.34;5257944;28;20052;-77
2022/10/23 07:22:05;;;;;;;11.27;3.93;;;;;;;12.43;100.00;100914.84;5276219;28;20441;-76
2022/10/23 07:24:37;;;;;;;10.90;3.97;;;;;;;12.41;100.00;100905.41;5257378;28;20551;-77
2022/10/23 07:27:08;;;;;;;10.83;4.30;;;;;;;12.46;100.00;100901.50;5276148;28;20024;-76
2022/10/23 07:29:42;;;;;;;8.20;3.67;;;;;;;12.47;100.00;100897.09;5276448;28;20074;-77
2022/10/23 07:32:14;;;;;;;8.00;4.10;;;;;;;12.52;100.00;100908.13;5275300;28;20020;-77
2022/10/23 07:34:45;;;;;;;10.43;4.30;;;;;;;12.54;100.00;100895.75;5277995;28;20024;-76
2022/10/23 07:37:16;;;;;;;14.20;3.83;;;;;;;12.61;100.00;100904.06;5276749;28;20031;-77
2022/10/23 07:39:47;;;;;;;11.37;4.80;;;;;;;12.62;100.00;100892.59;5276781;28;20351;-77
2022/10/23 07:42:19;;;;;;;11.53;4.83;;;;;;;12.57;100.00;100881.56;5259337;28;20446;-77
2022/10/23 07:44:50;;;;;;;6.83;3.87;;;;;;;12.67;100.00;100892.28;5276384;28;20418;-76
2022/10/23 07:47:21;;;;;;;11.20;4.20;;;;;;;12.68;100.00;100886.94;5259374;28;20139;-76
2022/10/23 07:49:52;;;;;;;11.60;3.80;;;;;;;12.71;100.00;100885.88;5275310;28;20086;-76
2022/10/23 07:52:24;;;;;;;10.80;4.67;;;;;;;12.76;100.00;100886.41;5276021;28;20024;-77
2022/10/23 07:54:55;;;;;;;8.27;3.80;;;;;;;12.75;100.00;100891.75;5258206;28;20020;-78
2022/10/23 07:57:27;;;;;;;6.80;4.27;;;;;;;12.79;100.00;100899.31;5276170;28;20035;-78
2022/10/23 07:59:58;;;;;;;8.00;4.23;;;;;;;12.85;100.00;100902.47;5275903;28;20103;-77
2022/10/23 08:02:29;;;;;;;9.83;5.20;;;;;;;12.87;100.00;100882.19;5276624;28;20467;-77
2022/10/23 08:05:00;;;;;;;9.37;4.47;;;;;;;12.90;100.00;100889.84;5256950;28;20028;-78
2022/10/23 08:07:32;;;;;;;11.60;6.60;;;;;;;12.97;100.00;100888.47;5275888;28;20174;-77
2022/10/23 08:10:04;;;;;;;16.93;6.37;;;;;;;12.99;100.00;100883.13;5257201;28;20115;-79
2022/10/23 08:12:37;;;;;;;9.20;4.77;;;;;;;13.07;100.00;100886.91;5275515;28;20050;-78
2022/10/23 08:15:08;;;;;;;9.37;4.97;;;;;;;13.14;100.00;100889.09;5257541;28;20052;-76
2022/10/23 08:17:39;;;;;;;7.97;3.90;;;;;;;13.18;100.00;100890.56;5257664;28;20036;-76
2022/10/23 08:20:12;;;;;;;9.10;4.37;;;;;;;13.23;100.00;100890.25;5275273;28;20081;-78
2022/10/23 08:22:43;;;;;;;6.97;3.87;;;;;;;13.24;100.00;100887.50;5256986;28;20468;-77
2022/10/23 08:25:15;;;;;;;9.40;4.87;;;;;;;13.18;100.00;100872.16;5275133;28;20143;-77
2022/10/23 08:27:46;;;;;;;12.50;3.57;;;;;;;13.23;100.00;100859.50;5257317;28;20032;-80
2022/10/23 08:30:17;;;;;;;8.23;5.27;;;;;;;13.38;100.00;100878.66;5277507;28;20029;-77
2022/10/23 08:32:49;;;;;;;9.60;5.40;;;;;;;13.41;100.00;100881.03;5275023;28;20115;-77
2022/10/23 08:35:21;;;;;;;11.70;4.10;;;;;;;13.34;100.00;100864.03;5274405;28;20025;-76
2022/10/23 08:37:52;;;;;;;9.43;4.00;;;;;;;13.42;100.00;100874.00;5275363;28;20048;-77
2022/10/23 08:40:24;;;;;;;9.93;4.60;;;;;;;13.43;100.00;100855.47;5274547;28;20056;-78
2022/10/23 08:43:06;;;;;;;8.83;4.87;;;;;;;13.45;100.00;100857.16;5275121;28;20035;-76
2022/10/23 08:46:00;;;;;;;10.90;4.50;;;;;;;13.42;100.00;100845.06;5279445;28;20016;-76
2022/10/23 08:48:35;;;;;;;14.97;5.40;;;;;;;13.47;100.00;100853.47;5279641;28;20024;-76
2022/10/23 08:51:53;;;;;;;8.50;4.20;;;;;;;13.51;100.00;100854.91;5261237;28;20496;-75
2022/10/23 08:54:45;;;;;;;12.00;4.07;;;;;;;13.52;100.00;100859.28;5266723;28;20120;-76
2022/10/23 08:57:19;;;;;;;14.63;5.10;;;;;;;13.55;100.00;100848.50;5278465;28;20052;-75
2022/10/23 09:00:06;;;;;;;11.13;4.30;;;;;;;13.60;100.00;100845.53;5279079;28;20059;-73
2022/10/23 09:02:43;;;;;;;10.00;4.10;;;;;;;13.64;100.00;100840.91;5278061;28;20031;-73
2022/10/23 09:05:30;;;;;;;11.03;5.23;;;;;;;13.68;100.00;100842.38;5278231;28;20031;-72
2022/10/23 09:08:29;;;;;;;11.10;4.70;;;;;;;13.64;100.00;100823.31;5278784;28;20182;-72
2022/10/23 09:11:19;;;;;;;10.57;4.00;;;;;;;13.77;100.00;100820.59;5260880;28;20550;-74
2022/10/23 09:14:29;;;;;;;11.17;3.93;;;;;;;13.83;100.00;100827.22;5277881;28;20490;-72
2022/10/23 09:17:15;;;;;;;12.83;4.10;;;;;;;13.86;100.00;100818.28;5271813;28;20032;-71
2022/10/23 09:19:49;;;;;;;10.27;4.03;;;;;;;13.87;100.00;100823.41;5270743;28;20466;-72
2022/10/23 09:22:20;;;;;;;7.72;4.30;;;;;;;13.96;100.00;100814.00;5260201;28;20043;-72
2022/10/23 09:24:51;;;;;;;12.30;4.17;;;;;;;13.96;100.00;100805.25;5278605;28;20028;-71
2022/10/23 09:27:23;;;;;;;7.43;3.93;;;;;;;14.00;100.00;100798.78;5279221;28;20024;-73
2022/10/23 09:29:55;;;;;;;9.67;4.03;;;;;;;14.00;100.00;100799.63;5279469;28;20024;-74
2022/10/23 09:32:36;;;;;;;7.63;4.13;;;;;;;13.97;100.00;100788.47;5279148;28;20029;-74
2022/10/23 09:35:21;;;;;;;8.00;3.90;;;;;;;14.05;100.00;100794.00;5277415;28;20024;-74
2022/10/23 09:37:54;;;;;;;8.60;3.55;;;;;;;14.02;100.00;100786.34;5278322;28;20035;-73
2022/10/23 09:40:41;;;;;;;9.53;4.07;;;;;;;14.03;100.00;100766.97;5279154;28;20394;-74
2022/10/23 09:43:16;;;;;;;8.83;4.23;;;;;;;14.09;100.00;100777.03;5278334;28;20028;-75
2022/10/23 09:46:00;;;;;;;11.63;4.70;;;;;;;14.11;100.00;100780.38;5260073;28;20035;-74
2022/10/23 09:48:33;;;;;;;7.73;3.80;;;;;;;14.11;100.00;100784.81;5278209;28;20029;-73
2022/10/23 09:51:18;;;;;;;6.33;3.20;;;;;;;14.13;100.00;100780.28;5278597;28;20279;-72
2022/10/23 09:53:51;;;;;;;;;;;;;;;14.25;100.00;100771.44;5279067;28;20062;-72
2022/10/23 09:56:22;;;;;;;5.50;3.37;;;;;;;14.17;100.00;100773.81;5277877;28;19955;-73
2022/10/23 09:59:01;;;;;;;7.67;3.23;;;;;;;14.23;100.00;100765.44;5278232;28;20016;-75
2022/10/23 10:01:46;;;;;;;17.40;4.33;;;;;;;14.23;100.00;100748.78;5260677;28;20115;-76
2022/10/23 10:04:18;;;;;;;8.77;3.43;;;;;;;14.22;100.00;100744.50;5277314;28;20035;-74
2022/10/23 10:06:56;;;;;;;13.43;4.30;;;;;;;14.32;100.00;100749.88;5278025;28;20463;-75
2022/10/23 10:09:27;;;;;;;10.13;4.70;;;;;;;14.28;100.00;100733.47;5277892;28;20395;-75
2022/10/23 10:12:34;;;;;;;7.80;4.30;;;;;;;14.37;100.00;100737.19;5277947;28;20028;-76
2022/10/23 10:15:21;;;;;;;7.77;3.27;;;;;;;14.36;100.00;100719.72;5263450;28;20049;-72
2022/10/23 10:18:16;;;;;;;10.60;3.63;;;;;;;14.39;100.00;100720.31;5279023;28;20028;-71
2022/10/23 10:21:04;;;;;;;7.43;3.47;;;;;;;14.46;100.00;100718.03;5276430;28;20055;-74
2022/10/23 10:27:46;;;;;;;6.97;4.10;;;;;;;14.58;100.00;100707.47;5181090;28;20141;-75
2022/10/23 10:30:20;;;;;;;11.53;4.37;;;;;;;14.57;100.00;100706.66;5201770;28;20088;-75
2022/10/23 10:32:56;;;;;;;9.95;4.22;;;;;;;14.56;100.00;100718.13;5268786;28;20095;-75
2022/10/23 10:35:41;;;;;;;8.67;3.83;;;;;;;14.63;100.00;100718.47;5263467;28;20036;-75
2022/10/23 10:38:34;;;;;;;9.63;3.63;;;;;;;14.73;100.00;100711.50;5276464;28;20086;-76
2022/10/23 10:41:36;;;;;;;17.93;5.03;;;;;;;14.84;100.00;100707.22;5278558;28;20117;-76
2022/10/23 10:44:39;;;;;;;11.73;4.63;;;;;;;14.85;100.00;100695.72;5272172;28;20038;-76
2022/10/23 10:47:32;;;;;;;11.13;4.03;;;;;;;14.99;100.00;100705.16;5264260;28;20098;-71
2022/10/23 10:50:16;;;;;;;12.77;3.77;;;;;;;15.07;100.00;100689.53;5276798;28;20700;-71
2022/10/23 10:53:00;;;;;;;;;;;;;;;15.19;100.00;100684.19;5266850;28;20061;-76
2022/10/23 10:55:36;;;;;;;9.63;4.30;;;;;;;15.28;100.00;100669.41;5255891;28;19923;-79
2022/10/23 10:58:30;;;;;;;9.50;3.47;;;;;;;15.43;100.00;100678.69;5278049;28;20028;-77
2022/10/23 11:01:13;;;;;;;9.40;4.00;;;;;;;15.40;100.00;100655.22;5293235;28;20111;-76
2022/10/23 11:04:15;;;;;;;9.50;3.50;;;;;;;15.62;100.00;100679.81;5251774;28;20371;-77
2022/10/23 11:06:52;;;;;;;10.27;3.03;;;;;;;15.66;100.00;100683.00;5280061;28;20052;-77
2022/10/23 11:09:29;;;;;;;10.17;3.40;;;;;;;15.79;100.00;100682.81;5277471;28;20040;-76
2022/10/23 11:12:00;;;;;;;6.53;3.00;;;;;;;15.77;100.00;100671.53;5265315;28;20028;-77
2022/10/23 11:14:33;;;;;;;14.27;3.03;;;;;;;15.86;100.00;100657.56;5272026;28;20094;-76
2022/10/23 11:17:15;;;;;;;6.80;2.93;;;;;;;15.94;100.00;100663.03;5271677;28;20029;-76
2022/10/23 11:20:22;;;;;;;6.10;3.00;;;;;;;15.96;100.00;100660.25;5275925;28;20027;-76
2022/10/23 11:23:12;;;;;;;9.23;2.73;;;;;;;16.13;100.00;100666.75;5276123;28;20036;-75
2022/10/23 11:26:15;;;;;;;10.33;3.33;;;;;;;16.15;100.00;100658.69;5275383;28;20078;-77
2022/10/23 11:29:02;;;;;;;7.67;3.70;;;;;;;16.21;100.00;100656.34;5276616;28;20020;-71
2022/10/23 11:31:52;;;;;;;9.23;3.20;;;;;;;16.26;100.00;100644.53;5257931;28;20468;-69
2022/10/23 11:34:38;;;;;;;7.10;3.93;;;;;;;16.33;100.00;100627.19;5275094;28;20388;-69
2022/10/23 11:37:15;;;;;;;7.43;3.03;;;;;;;16.36;100.00;100618.97;5268016;28;20078;-69
2022/10/23 11:40:20;;;;;;;8.17;3.20;;;;;;;16.43;100.00;100613.97;5274893;28;20030;-71
2022/10/23 11:42:51;;;;;;;6.05;3.05;;;;;;;16.43;100.00;100603.41;5276016;28;20107;-73
2022/10/23 11:45:28;;;;;;;7.67;2.70;;;;;;;16.57;100.00;100616.25;5276391;28;20123;-77
2022/10/23 11:48:25;;;;;;;12.30;2.80;;;;;;;16.65;100.00;100606.78;5278911;28;20471;-72
2022/10/23 11:50:56;;;;;;;11.00;3.20;;;;;;;16.64;100.00;100583.94;5257738;28;20044;-78
2022/10/23 11:53:30;;;;;;;11.80;2.90;;;;;;;16.71;100.00;100605.38;5261283;28;20035;-78
2022/10/23 11:56:05;;;;;;;;;;;;;;;16.76;100.00;100593.41;5257349;28;20977;-77
2022/10/23 11:58:49;;;;;;;6.80;2.65;;;;;;;16.78;100.00;100601.22;5260071;28;20561;-78